This is the latest recevied weather packets stored in our database for station/object DL9LA-13. If no packets are shown the sender has not sent any weather packets the latest 1 day(s).
| Time | Temp. | Humidity | Pressure | Rain* | Wind** | Luminosity | Snow |
|---|---|---|---|---|---|---|---|
| 1778079944 | 20.56° C | 47% | 959 hPa | - | - | - | - |
| 1778075115 | 23.33° C | 40% | 960 hPa | - | - | - | - |
| 1778070286 | 21.11° C | 45% | 960 hPa | - | - | - | - |
| 1778066664 | 21.67° C | 44% | 961 hPa | - | - | - | - |
| 1778064853 | 21.67° C | 44% | 962 hPa | - | - | - | - |
| 1778063646 | 21.67° C | 44% | 962 hPa | - | - | - | - |
| 1778058213 | 20° C | 50% | 963 hPa | - | - | - | - |
| 1778054591 | 19.44° C | 55% | 963 hPa | - | - | - | - |
| 1778049762 | 18.89° C | 61% | 963 hPa | - | - | - | - |
| 1778043122 | 14.44° C | 87% | 963 hPa | - | - | - | - |
| 1778037085 | 13.89° C | 90% | 964 hPa | - | - | - | - |
| 1778035274 | 14.44° C | 88% | 963 hPa | - | - | - | - |
| 1778031050 | 15° C | 92% | 964 hPa | - | - | - | - |
| 1778029842 | 15.56° C | 96% | 964 hPa | - | - | - | - |
| 1778027427 | 15.56° C | 96% | 964 hPa | - | - | - | - |
| 1778026220 | 15.56° C | 94% | 964 hPa | - | - | - | - |
| 1778022598 | 16.11° C | 93% | 964 hPa | - | - | - | - |
| 1778019580 | 16.67° C | 89% | 964 hPa | - | - | - | - |
| 1778018976 | 16.67° C | 89% | 964 hPa | - | - | - | - |
| 1778004489 | 17.78° C | 80% | 961 hPa | - | - | - | - |
| 1777999660 | 19.44° C | 60% | 962 hPa | - | - | - | - |
* Rain since midnight (hover to see other rain measurements)
** Current wind speed in m/s (hover to see current wind gust speed)